Time;durP1;ratioP1;P1;durP2;ratioP2;P2;SDS_P1;SDS_P2;PMS_P1;PMS_P2;Temp;Humidity;BMP_temperature;BMP_pressure;BME280_temperature;BME280_humidity;BME280_pressure;Samples;Min_cycle;Max_cycle;Signal;HPM_P1;HPM_P2
2022/05/16 00:00:48;;;;;;;;;7.00;6.80;;;;;16.04;46.37;99113.13;6038276;28;96873;-71
2022/05/16 00:03:51;;;;;;;;;8.60;7.00;;;;;16.06;46.06;99121.03;6041396;28;96448;-71
2022/05/16 00:06:55;;;;;;;;;7.50;7.00;;;;;16.01;46.20;99124.50;6045781;28;96827;-71
2022/05/16 00:09:58;;;;;;;;;6.00;5.00;;;;;16.01;46.00;99121.78;6040268;28;96724;-71
2022/05/16 00:13:03;;;;;;;;;6.00;6.00;;;;;15.95;46.23;99117.34;6024802;28;98987;-72
2022/05/16 00:16:06;;;;;;;;;8.00;7.60;;;;;15.90;46.30;99109.94;6041882;28;98041;-71
2022/05/16 00:19:10;;;;;;;;;7.00;7.00;;;;;15.90;46.28;99118.09;6042494;28;97923;-71
2022/05/16 00:22:14;;;;;;;;;9.60;8.60;;;;;15.82;46.30;99117.72;6009138;28;98914;-71
2022/05/16 00:25:17;;;;;;;;;9.00;9.00;;;;;15.72;46.36;99117.56;6042190;28;97004;-70
2022/05/16 00:28:23;;;;;;;;;6.40;6.00;;;;;15.64;46.34;99118.78;6041589;28;97150;-71
2022/05/16 00:31:26;;;;;;;;;7.50;6.00;;;;;15.58;46.48;99106.22;6042521;28;97208;-71
2022/05/16 00:34:31;;;;;;;;;7.00;7.00;;;;;15.54;46.53;99105.88;6040631;28;96902;-70
2022/05/16 00:37:35;;;;;;;;;7.40;7.00;;;;;15.51;46.66;99116.41;6050777;28;96691;-71
2022/05/16 00:40:39;;;;;;;;;7.00;6.00;;;;;15.46;46.92;99105.44;6025844;28;97413;-71
2022/05/16 00:43:49;;;;;;;;;7.00;7.00;;;;;15.40;46.68;99101.81;6042416;28;97066;-71
2022/05/16 00:46:53;;;;;;;;;8.00;6.00;;;;;15.41;46.67;99108.91;6028651;28;99882;-71
2022/05/16 00:49:58;;;;;;;;;6.60;6.00;;;;;15.39;46.58;99091.22;6042223;28;96997;-71
2022/05/16 00:53:01;;;;;;;;;6.00;6.00;;;;;15.40;46.75;99109.13;6034596;28;97851;-71
2022/05/16 00:56:06;;;;;;;;;5.00;5.00;;;;;15.39;46.72;99102.91;6023876;28;98658;-71
2022/05/16 00:59:11;;;;;;;;;7.50;7.00;;;;;15.40;46.82;99109.97;6023769;28;96934;-70
2022/05/16 01:05:37;;;;;;;;;6.80;6.80;;;;;15.37;46.82;99106.94;6045463;28;97579;-70
2022/05/16 01:08:43;;;;;;;;;9.00;8.00;;;;;14.89;46.85;99034.19;6039957;28;97014;-71
2022/05/16 01:11:47;;;;;;;;;7.00;7.00;;;;;15.36;46.80;99118.84;6024503;28;96397;-71
2022/05/16 01:14:54;;;;;;;;;8.80;7.80;;;;;15.30;46.65;99117.13;6042709;28;96973;-71
2022/05/16 01:17:58;;;;;;;;;8.00;7.00;;;;;15.22;46.92;99112.94;6040256;28;97780;-71
2022/05/16 01:21:16;;;;;;;;;9.60;7.40;;;;;15.15;46.88;99112.25;6043156;28;96774;-70
2022/05/16 01:24:21;;;;;;;;;8.60;8.00;;;;;15.14;46.77;99118.78;6043768;28;98594;-71
2022/05/16 01:27:25;;;;;;;;;8.00;7.00;;;;;15.12;46.91;99127.16;6044027;28;96770;-71
2022/05/16 01:30:31;;;;;;;;;7.00;6.60;;;;;15.03;47.00;99114.22;6033535;28;96715;-70
2022/05/16 01:33:34;;;;;;;;;8.20;7.00;;;;;15.06;46.93;99128.13;6028236;28;97923;-70
2022/05/16 01:36:38;;;;;;;;;8.60;8.00;;;;;15.06;46.93;99128.13;6055539;28;99205;-69
2022/05/16 01:39:43;;;;;;;;;8.00;8.00;;;;;15.09;46.76;99130.38;6046020;28;97475;-70
2022/05/16 01:42:47;;;;;;;;;8.00;8.00;;;;;15.09;46.91;99124.13;6043581;28;96718;-71
2022/05/16 01:45:51;;;;;;;;;8.00;7.00;;;;;15.03;46.68;99125.91;6029181;28;97015;-70
2022/05/16 01:48:55;;;;;;;;;10.00;9.00;;;;;14.98;46.91;99123.13;6028568;28;98304;-70
2022/05/16 01:51:58;;;;;;;;;9.75;7.75;;;;;14.92;46.84;99123.25;6028787;28;96795;-72
2022/05/16 01:55:03;;;;;;;;;8.60;8.00;;;;;14.88;47.01;99120.22;6061339;28;96870;-71
2022/05/16 01:58:07;;;;;;;;;8.00;8.00;;;;;14.76;47.20;99114.00;6049178;28;96923;-71
2022/05/16 02:01:12;;;;;;;;;9.00;8.40;;;;;14.79;47.18;99110.00;6044091;28;97004;-71
2022/05/16 02:04:16;;;;;;;;;9.00;8.00;;;;;14.73;47.35;99112.63;6041786;28;97771;-71
2022/05/16 02:07:19;;;;;;;;;8.75;8.75;;;;;14.77;47.32;99103.97;6045062;28;97452;-71
2022/05/16 02:10:25;;;;;;;;;7.00;6.75;;;;;14.77;47.40;99104.81;6046040;28;96734;-70
2022/05/16 02:13:29;;;;;;;;;8.60;8.00;;;;;14.78;47.27;99102.91;6035071;28;98704;-71
2022/05/16 02:16:32;;;;;;;;;7.40;7.00;;;;;14.76;47.09;99096.94;6034770;28;97860;-71
2022/05/16 02:19:35;;;;;;;;;7.80;7.20;;;;;14.75;47.36;99101.53;6014621;28;98392;-70
2022/05/16 02:26:01;;;;;;;;;10.00;8.00;;;;;14.84;47.36;99105.50;6024776;28;97797;-71
2022/05/16 02:29:05;;;;;;;;;11.00;10.00;;;;;14.90;47.37;99107.22;6044909;28;96382;-71
2022/05/16 02:32:10;;;;;;;;;9.50;8.50;;;;;14.93;47.29;99103.19;6008905;28;98256;-70
2022/05/16 02:35:14;;;;;;;;;12.00;10.00;;;;;14.98;47.09;99103.28;6032003;28;99595;-70
2022/05/16 02:38:20;;;;;;;;;10.00;8.40;;;;;14.98;47.24;99106.81;6064751;28;96809;-70
2022/05/16 02:41:25;;;;;;;;;10.00;9.40;;;;;15.00;47.38;99109.31;6044113;28;96576;-70
2022/05/16 02:44:28;;;;;;;;;8.80;7.80;;;;;15.00;47.48;99117.44;6033740;28;97206;-72
2022/05/16 02:47:31;;;;;;;;;9.00;8.50;;;;;15.02;47.45;99120.72;6022908;28;97065;-70
2022/05/16 02:50:35;;;;;;;;;10.00;9.00;;;;;15.01;47.37;99121.78;6044048;28;96511;-69
2022/05/16 02:53:38;;;;;;;;;8.25;8.00;;;;;15.00;47.24;99125.59;6044094;28;97645;-69
2022/05/16 02:56:42;;;;;;;;;9.20;7.20;;;;;14.99;47.13;99122.06;6028157;28;96684;-71
2022/05/16 02:59:46;;;;;;;;;7.60;7.00;;;;;14.95;46.98;99125.50;6027700;28;97047;-71
2022/05/16 03:02:49;;;;;;;;;8.80;7.80;;;;;14.87;47.03;99136.72;6044236;28;97941;-70
2022/05/16 03:05:53;;;;;;;;;10.00;9.00;;;;;14.78;47.12;99132.78;6059531;28;97528;-71
2022/05/16 03:08:56;;;;;;;;;9.25;7.25;;;;;14.73;47.43;99126.19;6027771;28;97606;-72
2022/05/16 03:12:01;;;;;;;;;7.40;6.40;;;;;14.73;47.61;99125.34;6028564;28;97111;-72
2022/05/16 03:15:05;;;;;;;;;8.00;7.00;;;;;14.73;47.60;99128.91;6030528;28;98789;-71
2022/05/16 03:18:08;;;;;;;;;11.00;8.00;;;;;14.74;47.75;99130.56;6044259;28;96845;-72
2022/05/16 03:21:12;;;;;;;;;10.00;9.00;;;;;14.79;47.59;99131.72;6025862;28;96685;-71
2022/05/16 03:24:15;;;;;;;;;9.00;8.00;;;;;14.86;47.47;99137.78;6042013;28;97890;-71
2022/05/16 03:27:20;;;;;;;;;9.00;8.25;;;;;14.92;47.51;99142.25;6042944;28;97553;-71
2022/05/16 03:30:23;;;;;;;;;9.00;8.00;;;;;14.96;47.42;99138.81;6010549;28;98549;-71
2022/05/16 03:33:27;;;;;;;;;10.00;9.00;;;;;14.98;47.19;99141.28;6041915;28;96501;-72
2022/05/16 03:36:30;;;;;;;;;9.40;7.60;;;;;14.87;47.22;99117.72;6039564;28;97526;-70
2022/05/16 03:42:56;;;;;;;;;8.00;7.00;;;;;15.23;47.16;99147.19;6045239;28;96849;-71
2022/05/16 03:45:59;;;;;;;;;9.40;9.00;;;;;15.34;47.07;99153.63;6011563;28;97981;-71
2022/05/16 03:49:03;;;;;;;;;10.00;9.00;;;;;15.39;46.94;99143.66;6008269;28;97834;-70
2022/05/16 03:52:06;;;;;;;;;9.00;9.00;;;;;15.49;46.85;99141.09;6021751;28;97939;-71
2022/05/16 03:55:17;;;;;;;;;11.00;9.00;;;;;15.54;46.81;99141.19;6023811;28;96690;-70
2022/05/16 03:58:22;;;;;;;;;9.00;8.40;;;;;15.57;46.77;99132.56;6023180;28;97409;-70
2022/05/16 04:01:27;;;;;;;;;10.60;9.00;;;;;15.61;46.55;99130.16;6025647;28;97828;-70
2022/05/16 04:04:31;;;;;;;;;8.00;8.00;;;;;15.66;46.60;99137.56;6017850;28;97631;-70
2022/05/16 04:07:35;;;;;;;;;9.40;9.40;;;;;15.76;46.18;99137.72;6023897;28;96611;-70
2022/05/16 04:10:38;;;;;;;;;8.60;7.00;;;;;15.87;45.81;99143.09;6038072;28;97582;-69
2022/05/16 04:13:43;;;;;;;;;8.00;7.00;;;;;16.00;45.61;99139.16;6043425;28;96770;-70
2022/05/16 04:16:47;;;;;;;;;8.00;7.60;;;;;16.13;45.20;99143.41;6027237;28;99750;-70
2022/05/16 04:19:50;;;;;;;;;9.00;8.75;;;;;16.27;45.04;99145.50;6025611;28;97874;-72
2022/05/16 04:22:53;;;;;;;;;9.00;8.25;;;;;16.44;44.87;99149.00;6042940;28;96727;-70
2022/05/16 04:25:57;;;;;;;;;8.00;8.00;;;;;16.68;44.39;99143.34;6037560;28;97520;-71
2022/05/16 04:29:02;;;;;;;;;10.00;9.00;;;;;16.86;44.33;99145.69;6029346;28;97861;-71
2022/05/16 04:32:06;;;;;;;;;10.40;10.00;;;;;17.15;44.68;99149.81;6043392;28;96863;-70
2022/05/16 04:35:10;;;;;;;;;9.00;8.80;;;;;17.33;43.62;99154.09;6033127;28;97857;-71
2022/05/16 04:38:13;;;;;;;;;10.50;10.00;;;;;17.48;43.19;99151.50;6049445;28;96662;-71
2022/05/16 04:44:39;;;;;;;;;9.00;9.00;;;;;17.74;42.54;99147.91;6033416;28;97426;-71
2022/05/16 04:47:43;;;;;;;;;9.00;8.00;;;;;17.88;42.56;99148.28;6042532;28;97496;-71
2022/05/16 04:50:46;;;;;;;;;10.00;9.80;;;;;17.99;42.33;99155.44;6024609;28;98499;-70
2022/05/16 04:53:49;;;;;;;;;10.00;9.00;;;;;18.14;42.17;99155.53;6040551;28;96693;-70
2022/05/16 04:56:53;;;;;;;;;9.00;9.00;;;;;18.25;42.02;99153.69;6027063;28;98065;-70
2022/05/16 04:59:58;;;;;;;;;7.00;7.00;;;;;18.30;41.03;99152.88;6026995;28;99308;-70
2022/05/16 05:03:03;;;;;;;;;6.00;6.00;;;;;18.29;40.23;99152.06;6042514;28;97280;-72
2022/05/16 05:06:07;;;;;;;;;9.00;7.00;;;;;18.36;40.49;99151.81;6029673;28;98107;-69
2022/05/16 05:09:10;;;;;;;;;7.00;6.00;;;;;18.44;40.16;99154.03;6028645;28;98831;-72
2022/05/16 05:15:34;;;;;;;;;7.40;5.80;;;;;18.50;40.08;99158.44;5987475;28;97452;-70
2022/05/16 05:18:40;;;;;;;;;8.40;7.00;;;;;18.59;39.91;99152.22;6030203;28;96621;-71
2022/05/16 05:21:43;;;;;;;;;6.00;5.60;;;;;18.67;39.92;99147.34;6051565;28;96917;-71
2022/05/16 05:24:46;;;;;;;;;9.00;8.00;;;;;18.75;39.83;99157.75;6067950;28;96849;-70
2022/05/16 05:27:50;;;;;;;;;9.00;9.00;;;;;18.87;39.74;99156.41;6046454;28;96841;-70
2022/05/16 05:30:55;;;;;;;;;8.00;8.00;;;;;18.90;39.85;99158.63;6045528;28;97495;-71
2022/05/16 05:33:59;;;;;;;;;8.00;8.00;;;;;19.00;39.26;99163.28;6040890;28;97538;-71
2022/05/16 05:37:04;;;;;;;;;7.00;7.00;;;;;18.95;39.31;99157.81;6038692;28;99010;-70
2022/05/16 05:40:09;;;;;;;;;9.60;7.60;;;;;19.06;39.27;99158.66;6046070;28;96403;-71
2022/05/16 05:43:13;;;;;;;;;8.00;8.00;;;;;19.10;39.73;99165.22;6046610;28;96543;-70
2022/05/16 05:46:18;;;;;;;;;9.00;8.20;;;;;19.23;39.71;99164.69;6035099;28;98591;-69
2022/05/16 05:49:29;;;;;;;;;10.00;9.20;;;;;19.30;39.63;99140.66;6027406;28;97891;-70
2022/05/16 05:52:41;;;;;;;;;10.00;10.00;;;;;19.60;39.46;99159.81;6053395;28;96802;-70
2022/05/16 05:55:47;;;;;;;;;11.40;10.40;;;;;19.79;39.57;99157.38;6023679;28;97038;-70
2022/05/16 05:58:50;;;;;;;;;9.80;9.80;;;;;20.01;39.04;99166.09;6022921;29;96345;-70
2022/05/16 06:01:55;;;;;;;;;9.00;9.00;;;;;20.14;38.20;99162.78;6029764;28;98739;-71
2022/05/16 06:04:58;;;;;;;;;14.80;13.00;;;;;20.21;38.72;99162.50;6028499;28;98540;-71
2022/05/16 06:08:02;;;;;;;;;11.40;10.00;;;;;20.33;38.33;99169.31;6045084;28;97644;-71
2022/05/16 06:11:05;;;;;;;;;11.00;11.00;;;;;20.44;38.64;99164.63;6033610;28;97940;-70
2022/05/16 06:14:08;;;;;;;;;12.40;12.40;;;;;20.56;38.18;99159.69;6069726;28;97413;-71
2022/05/16 06:17:13;;;;;;;;;9.20;9.00;;;;;20.77;38.63;99162.34;6069004;28;96579;-70
2022/05/16 06:20:17;;;;;;;;;11.00;10.00;;;;;20.93;37.32;99159.22;6036077;28;96734;-70
2022/05/16 06:23:20;;;;;;;;;11.00;10.00;;;;;21.14;37.53;99148.97;6026272;28;98993;-70
2022/05/16 06:26:23;;;;;;;;;13.00;11.40;;;;;21.40;36.85;99153.19;6042988;28;98332;-70
2022/05/16 06:29:27;;;;;;;;;9.00;8.60;;;;;21.42;36.19;99161.13;6042826;28;97861;-70
2022/05/16 06:32:32;;;;;;;;;12.80;11.00;;;;;21.57;35.49;99142.63;6044687;28;97059;-71
2022/05/16 06:35:37;;;;;;;;;11.00;10.00;;;;;21.79;35.77;99152.31;6043585;28;97470;-70
2022/05/16 06:38:40;;;;;;;;;13.00;11.40;;;;;21.85;34.38;99151.16;6044704;28;96365;-69
2022/05/16 06:41:44;;;;;;;;;9.60;9.00;;;;;21.84;34.34;99155.84;6028226;28;98434;-71
2022/05/16 06:44:47;;;;;;;;;9.80;9.00;;;;;21.94;35.14;99154.97;6060992;28;96666;-72
2022/05/16 06:47:52;;;;;;;;;10.00;9.00;;;;;22.03;35.05;99162.28;6042898;28;96978;-72
2022/05/16 06:50:55;;;;;;;;;11.00;9.60;;;;;22.28;34.79;99160.38;6057349;28;97272;-70
2022/05/16 06:54:01;;;;;;;;;9.00;9.00;;;;;22.43;34.09;99160.22;6033086;28;97197;-70
2022/05/16 06:57:05;;;;;;;;;11.00;10.00;;;;;22.74;33.56;99152.41;6020784;28;97131;-71
2022/05/16 07:00:10;;;;;;;;;9.80;8.80;;;;;23.08;33.23;99169.53;6009356;29;97843;-70
2022/05/16 07:03:15;;;;;;;;;9.25;8.00;;;;;23.32;33.12;99162.03;5997700;29;97478;-70
2022/05/16 07:06:21;;;;;;;;;10.00;8.00;;;;;23.63;32.44;99167.09;5996622;29;97204;-70
2022/05/16 07:09:24;;;;;;;;;9.00;9.00;;;;;23.78;32.59;99163.28;5997753;29;97453;-70
2022/05/16 07:12:27;;;;;;;;;9.20;9.00;;;;;23.86;31.62;99163.38;6002369;29;99039;-69
2022/05/16 07:15:31;;;;;;;;;8.60;8.00;;;;;24.15;32.02;99163.13;6006145;29;97612;-70
2022/05/16 07:18:35;;;;;;;;;12.00;10.00;;;;;24.48;31.68;99169.44;6008508;29;97487;-72
2022/05/16 07:21:39;;;;;;;;;9.40;9.00;;;;;24.81;30.96;99161.88;6019784;29;97338;-71
2022/05/16 07:24:44;;;;;;;;;8.00;7.00;;;;;25.06;30.27;99177.09;6013922;29;97877;-71
2022/05/16 07:27:59;;;;;;;;;10.00;8.00;;;;;25.13;30.21;99177.47;6015990;29;96766;-72
2022/05/16 07:31:04;;;;;;;;;6.00;6.00;;;;;25.32;29.50;99176.19;6008709;28;97596;-69
2022/05/16 07:34:08;;;;;;;;;5.75;5.75;;;;;25.63;28.57;99176.31;6002991;29;97765;-70
2022/05/16 07:37:12;;;;;;;;;6.00;5.00;;;;;25.97;28.11;99180.44;5997639;29;97648;-70
2022/05/16 07:40:16;;;;;;;;;5.67;5.00;;;;;26.19;27.55;99172.91;5997811;29;97445;-71
2022/05/16 07:43:20;;;;;;;;;6.60;5.60;;;;;26.43;27.32;99174.53;6009247;29;98752;-71
2022/05/16 07:46:23;;;;;;;;;5.40;5.40;;;;;26.68;27.23;99160.78;6003514;29;96901;-71
2022/05/16 07:49:29;;;;;;;;;5.60;5.00;;;;;27.02;27.03;99164.84;5997795;29;99584;-70
2022/05/16 07:52:33;;;;;;;;;5.60;5.60;;;;;27.25;26.30;99166.31;6012995;28;97242;-70
2022/05/16 07:55:36;;;;;;;;;4.00;4.00;;;;;27.46;26.34;99163.72;6044915;28;97015;-71
2022/05/16 07:58:39;;;;;;;;;4.00;4.00;;;;;27.64;24.86;99164.53;6049942;28;98207;-71
2022/05/16 08:01:43;;;;;;;;;5.00;4.00;;;;;27.81;24.07;99170.88;6049790;28;97990;-71
2022/05/16 08:04:48;;;;;;;;;3.00;2.67;;;;;27.86;22.77;99173.47;6042557;28;97787;-71
2022/05/16 08:11:13;;;;;;;;;2.00;2.00;;;;;28.09;22.60;99170.50;6043197;28;96753;-70
2022/05/16 08:14:16;;;;;;;;;2.60;2.00;;;;;28.09;22.49;99171.31;6047879;28;97829;-71
2022/05/16 08:17:20;;;;;;;;;4.00;4.00;;;;;28.05;22.07;99175.09;6043617;28;97631;-71
2022/05/16 08:20:26;;;;;;;;;2.00;2.00;;;;;28.13;22.83;99177.03;6010357;29;97913;-70
2022/05/16 08:23:30;;;;;;;;;2.00;2.00;;;;;28.22;22.29;99173.09;6013732;28;99456;-72
2022/05/16 08:26:34;;;;;;;;;2.00;2.00;;;;;28.45;21.98;99165.34;6058568;28;96929;-71
2022/05/16 08:29:37;;;;;;;;;2.50;2.00;;;;;28.56;22.56;99161.06;6025251;28;96814;-72
2022/05/16 08:32:40;;;;;;;;;3.25;3.00;;;;;28.67;21.23;99167.03;6033437;28;97499;-71
2022/05/16 08:39:51;;;;;;;;;3.00;2.00;;;;;28.66;21.76;99168.19;6052709;28;97172;-71
2022/05/16 08:42:43;;;;;;;;;1.00;1.00;;;;;29.16;21.50;99160.75;6042955;28;97504;-70
2022/05/16 08:45:54;;;;;;;;;2.00;2.00;;;;;29.30;21.00;99166.03;6024926;28;96952;-71
2022/05/16 08:48:59;;;;;;;;;2.00;1.00;;;;;29.42;21.08;99159.75;6013670;28;96998;-72
2022/05/16 08:52:10;;;;;;;;;2.00;2.00;;;;;29.68;21.65;99165.88;6043054;28;97436;-70
2022/05/16 08:55:26;;;;;;;;;1.00;1.00;;;;;29.88;20.10;99165.03;6025065;28;96702;-70
2022/05/16 08:58:34;;;;;;;;;1.00;1.00;;;;;29.83;19.68;99165.25;6019496;28;97778;-73
2022/05/16 09:01:43;;;;;;;;;2.00;1.80;;;;;29.96;20.70;99166.13;6043800;28;96654;-74
2022/05/16 09:04:50;;;;;;;;;2.00;2.00;;;;;30.11;20.00;99157.13;6037347;28;97335;-73
2022/05/16 09:07:57;;;;;;;;;2.40;2.40;;;;;30.27;20.29;99163.66;6025784;28;99883;-72
2022/05/16 09:11:09;;;;;;;;;3.00;3.00;;;;;30.30;19.32;99156.59;6042532;28;97523;-70
2022/05/16 09:14:29;;;;;;;;;2.00;2.00;;;;;30.29;19.86;99158.56;6052388;28;98693;-71
2022/05/16 09:17:54;;;;;;;;;4.00;3.00;;;;;30.54;20.26;99162.22;6026007;28;99578;-72
2022/05/16 09:21:08;;;;;;;;;2.40;2.40;;;;;30.76;19.67;99160.94;6044957;28;96495;-71
2022/05/16 09:24:16;;;;;;;;;3.00;3.00;;;;;30.77;19.49;99129.97;6024969;28;98364;-70
2022/05/16 09:30:48;;;;;;;;;3.00;3.00;;;;;31.22;19.06;99142.94;6048173;28;97476;-72
2022/05/16 09:33:54;;;;;;;;;2.00;1.00;;;;;31.18;18.55;99128.09;6043519;28;97044;-73
2022/05/16 09:36:58;;;;;;;;;1.00;1.00;;;;;31.29;19.19;99143.13;6044173;28;97045;-71
2022/05/16 09:40:03;;;;;;;;;3.00;2.00;;;;;31.32;19.17;99123.75;6044139;28;96482;-72
2022/05/16 09:43:09;;;;;;;;;3.00;3.00;;;;;31.49;18.82;99133.78;6041774;28;96561;-72
2022/05/16 09:46:25;;;;;;;;;1.00;1.00;;;;;31.63;18.07;99130.63;6048401;28;96397;-73
2022/05/16 09:49:29;;;;;;;;;2.00;2.00;;;;;31.75;19.21;99130.56;6047245;28;96635;-71
2022/05/16 09:52:34;;;;;;;;;2.00;2.00;;;;;31.88;17.61;99134.91;6028544;28;97774;-71
2022/05/16 09:55:48;;;;;;;;;2.00;2.00;;;;;31.97;17.45;99129.97;6033239;28;96688;-71
2022/05/16 09:58:54;;;;;;;;;3.80;3.00;;;;;32.12;18.88;99133.97;6023202;28;96465;-70
2022/05/16 10:02:10;;;;;;;;;3.00;3.00;;;;;32.03;17.70;99095.06;6057664;28;97458;-70
2022/05/16 10:05:29;;;;;;;;;3.00;3.00;;;;;32.25;17.67;99141.13;6051325;28;97626;-72
2022/05/16 10:08:40;;;;;;;;;3.00;2.00;;;;;32.36;17.45;99142.19;6029155;28;96785;-72
2022/05/16 10:11:50;;;;;;;;;3.00;3.00;;;;;32.33;17.24;99140.13;6062988;28;96811;-71
2022/05/16 10:14:54;;;;;;;;;2.00;2.00;;;;;32.18;17.86;99138.94;6044916;28;96660;-72
2022/05/16 10:17:59;;;;;;;;;4.00;4.00;;;;;31.94;17.23;99127.09;6044619;28;97656;-72
2022/05/16 10:21:08;;;;;;;;;4.00;2.40;;;;;31.64;17.60;99126.66;6016579;28;96655;-71
2022/05/16 10:24:13;;;;;;;;;4.00;4.00;;;;;31.77;18.76;99122.63;6031904;28;97115;-71
2022/05/16 10:27:24;;;;;;;;;3.40;3.00;;;;;32.05;18.84;99123.44;6036663;28;96558;-72
2022/05/16 10:30:30;;;;;;;;;2.60;2.60;;;;;32.15;18.33;99116.53;6044695;28;97737;-71
2022/05/16 10:33:37;;;;;;;;;2.40;2.00;;;;;32.41;18.49;99114.00;6058388;28;97421;-71
2022/05/16 10:36:52;;;;;;;;;3.40;3.40;;;;;32.64;18.33;99103.88;6028691;28;97431;-72
2022/05/16 10:40:07;;;;;;;;;2.00;2.00;;;;;32.74;16.56;99101.69;6028284;28;97064;-70
2022/05/16 10:43:26;;;;;;;;;2.00;2.00;;;;;32.52;17.49;99100.31;6016538;28;97795;-74
2022/05/16 10:46:34;;;;;;;;;2.00;2.00;;;;;32.49;17.13;99107.44;6045769;28;96790;-71
2022/05/16 10:49:45;;;;;;;;;2.00;2.00;;;;;32.57;18.30;99105.63;6045038;28;96773;-71
2022/05/16 10:52:54;;;;;;;;;3.00;3.00;;;;;32.78;18.11;99103.38;6049986;28;96891;-70
2022/05/16 10:56:07;;;;;;;;;2.00;2.00;;;;;32.69;16.96;99099.16;6045341;28;96625;-73
2022/05/16 10:59:23;;;;;;;;;2.00;2.00;;;;;32.28;17.42;99095.75;6032760;28;98661;-70
2022/05/16 11:02:39;;;;;;;;;3.40;3.00;;;;;32.31;17.37;99097.00;6048224;28;96638;-72
2022/05/16 11:05:57;;;;;;;;;2.40;2.40;;;;;32.30;17.37;99087.84;6021040;29;96866;-72
2022/05/16 11:09:07;;;;;;;;;4.00;3.00;;;;;32.37;17.71;99104.75;6026525;28;97557;-70
2022/05/16 11:12:18;;;;;;;;;2.00;2.00;;;;;32.51;17.93;99099.50;6017432;28;96915;-73
2022/05/16 11:15:31;;;;;;;;;3.80;3.00;;;;;32.46;17.24;99098.97;6046580;28;97533;-72
2022/05/16 11:18:43;;;;;;;;;4.00;3.00;;;;;32.49;17.25;99101.06;6027420;28;96438;-71
2022/05/16 11:21:52;;;;;;;;;3.00;3.00;;;;;32.51;17.53;99093.91;6025722;28;97281;-73
2022/05/16 11:25:06;;;;;;;;;2.00;2.00;;;;;32.52;17.51;99094.72;6027707;28;98370;-71
2022/05/16 11:28:16;;;;;;;;;3.20;3.00;;;;;32.62;17.41;99095.00;6044823;28;96585;-70
2022/05/16 11:31:24;;;;;;;;;1.20;1.20;;;;;32.70;17.10;99090.41;6026382;28;97820;-72
2022/05/16 11:34:50;;;;;;;;;3.00;3.00;;;;;32.77;16.98;99078.59;6044560;28;97821;-72
2022/05/16 11:38:06;;;;;;;;;2.00;1.80;;;;;32.57;16.90;99074.91;6026541;28;99027;-71
2022/05/16 11:41:31;;;;;;;;;2.00;2.00;;;;;32.52;16.59;99076.00;6026549;28;96933;-72
2022/05/16 11:44:49;;;;;;;;;2.60;2.60;;;;;32.58;17.55;99065.38;6038455;28;97579;-70
2022/05/16 11:48:19;;;;;;;;;3.60;3.00;;;;;32.50;16.78;99069.97;6050821;28;99546;-71
2022/05/16 11:52:08;;;;;;;;;2.00;2.00;;;;;32.57;16.45;99047.81;6022413;28;97822;-73
2022/05/16 12:02:12;;;;;;;;;2.00;2.00;;;;;32.62;17.22;99043.94;6044318;28;96410;-73
2022/05/16 12:05:38;;;;;;;;;2.00;2.00;;;;;32.50;17.54;99039.25;6055716;28;97652;-72
2022/05/16 12:08:46;;;;;;;;;4.00;3.00;;;;;32.87;17.81;99042.53;6042450;28;97085;-72
2022/05/16 12:11:57;;;;;;;;;3.00;3.00;;;;;33.29;17.12;99039.84;6043395;28;96793;-72
2022/05/16 12:15:32;;;;;;;;;2.40;2.40;;;;;33.63;16.46;99038.13;6046688;28;96643;-72
2022/05/16 12:18:38;;;;;;;;;4.00;4.00;;;;;33.81;16.55;99044.06;5991099;28;97565;-70
2022/05/16 12:21:56;;;;;;;;;4.60;4.00;;;;;33.78;16.63;99045.63;6039839;28;97615;-71
2022/05/16 12:25:10;;;;;;;;;3.00;2.50;;;;;33.70;15.99;99041.09;6043295;28;97546;-72
2022/05/16 12:28:29;;;;;;;;;3.50;3.00;;;;;33.71;17.04;99039.09;6024725;28;97747;-72
2022/05/16 12:31:41;;;;;;;;;3.00;3.00;;;;;33.66;16.23;99036.56;6040764;28;97742;-72
2022/05/16 12:34:51;;;;;;;;;4.00;3.00;;;;;33.65;16.28;99034.94;6044819;28;96733;-71
2022/05/16 12:37:57;;;;;;;;;3.00;3.00;;;;;33.73;16.58;99023.56;6041861;28;99511;-71
2022/05/16 13:04:05;;;;;;;;;4.00;3.00;;;;;33.24;17.36;99001.03;6026834;28;96633;-72
2022/05/16 13:07:15;;;;;;;;;3.00;2.40;;;;;33.35;17.09;99004.84;6043073;28;98042;-72
2022/05/16 13:10:29;;;;;;;;;3.25;3.00;;;;;33.48;17.72;99009.09;6025918;28;97438;-73
2022/05/16 13:13:46;;;;;;;;;3.00;3.00;;;;;33.35;17.01;98993.66;6042771;28;96593;-70
2022/05/16 13:16:58;;;;;;;;;3.00;3.00;;;;;33.18;16.80;98990.53;6027611;28;97461;-71
2022/05/16 13:20:08;;;;;;;;;4.00;3.00;;;;;33.12;17.11;98983.59;6047629;28;96669;-71
2022/05/16 13:23:14;;;;;;;;;5.00;4.00;;;;;33.17;18.23;98991.72;6045773;28;96455;-72
2022/05/16 13:29:39;;;;;;;;;4.00;4.00;;;;;33.07;17.09;98979.13;6046451;28;97535;-72
2022/05/16 13:32:42;;;;;;;;;4.50;4.00;;;;;33.03;17.60;98975.44;6029083;28;99595;-73
2022/05/16 13:35:47;;;;;;;;;3.00;3.00;;;;;32.87;16.72;98983.09;6030329;28;97893;-71
2022/05/16 13:38:53;;;;;;;;;3.00;3.00;;;;;32.84;17.52;98981.03;6053484;28;96917;-73
2022/05/16 13:41:58;;;;;;;;;3.00;3.00;;;;;32.82;17.26;98973.03;6053411;28;97259;-73
2022/05/16 13:45:02;;;;;;;;;4.00;3.00;;;;;32.80;17.84;98974.53;6070627;28;97515;-73
2022/05/16 13:48:08;;;;;;;;;3.50;3.00;;;;;32.86;17.76;98971.09;6051745;28;97457;-72
2022/05/16 13:51:16;;;;;;;;;3.00;3.00;;;;;32.83;17.22;98963.47;6046520;28;96923;-73
2022/05/16 13:54:22;;;;;;;;;5.60;3.00;;;;;32.64;17.28;98964.28;6046746;28;97489;-71
2022/05/16 13:57:27;;;;;;;;;5.00;4.00;;;;;32.48;17.49;98960.69;6029927;28;97273;-73
2022/05/16 14:00:37;;;;;;;;;4.00;4.00;;;;;32.28;17.50;98959.03;6046775;28;96594;-72
2022/05/16 14:03:46;;;;;;;;;4.00;3.20;;;;;32.27;18.28;98951.03;6047020;28;97564;-73
2022/05/16 14:06:53;;;;;;;;;3.00;3.00;;;;;32.37;18.57;98956.84;6046674;28;96959;-71
2022/05/16 14:09:59;;;;;;;;;3.33;3.00;;;;;32.54;18.70;98947.25;6044696;28;96997;-72
2022/05/16 14:13:06;;;;;;;;;4.00;3.00;;;;;32.61;17.94;98947.41;6029481;28;97433;-73
2022/05/16 14:16:14;;;;;;;;;6.00;5.00;;;;;32.59;17.30;98947.78;6031385;28;97477;-73
2022/05/16 14:19:32;;;;;;;;;4.50;4.00;;;;;32.51;18.61;98950.75;6036191;28;96596;-71
2022/05/16 14:22:44;;;;;;;;;3.50;3.00;;;;;32.49;17.89;98945.56;6069829;28;96906;-73
2022/05/16 14:25:47;;;;;;;;;5.00;4.00;;;;;32.54;18.39;98939.69;6052257;28;97192;-72
2022/05/16 14:28:53;;;;;;;;;5.00;5.00;;;;;32.59;18.54;98928.25;6042567;28;97616;-73
2022/05/16 14:32:06;;;;;;;;;4.00;3.00;;;;;32.57;17.83;98929.78;6029262;28;97475;-73
2022/05/16 14:35:12;;;;;;;;;3.00;3.00;;;;;32.51;18.30;98920.88;6028945;28;99558;-72
2022/05/16 14:38:17;;;;;;;;;4.00;4.00;;;;;32.49;18.78;98928.00;6064414;28;96656;-73
2022/05/16 14:41:23;;;;;;;;;3.00;3.00;;;;;32.42;18.41;98925.06;6070178;28;96926;-71
2022/05/16 14:44:33;;;;;;;;;4.40;4.00;;;;;32.30;17.89;98926.00;6039048;28;98880;-71
2022/05/16 14:47:42;;;;;;;;;4.00;3.20;;;;;32.17;18.74;98922.53;6046071;28;96948;-70
2022/05/16 14:50:45;;;;;;;;;3.40;3.40;;;;;32.08;18.93;98918.28;6045855;28;96513;-70
2022/05/16 14:53:51;;;;;;;;;3.00;3.00;;;;;31.97;18.21;98911.63;6035650;28;97360;-72
2022/05/16 14:56:54;;;;;;;;;4.00;3.00;;;;;31.93;18.76;98910.75;6069672;28;96413;-72
2022/05/16 14:59:59;;;;;;;;;4.60;3.60;;;;;31.79;18.22;98908.44;6051953;28;97456;-72
2022/05/16 15:06:27;;;;;;;;;4.80;4.00;;;;;31.46;19.23;98899.63;6028735;28;96443;-71
2022/05/16 15:09:31;;;;;;;;;4.20;3.20;;;;;31.35;18.81;98899.34;6044219;28;97974;-72
2022/05/16 15:12:35;;;;;;;;;5.25;5.00;;;;;31.28;19.26;98897.16;6042267;28;98680;-73
2022/05/16 15:15:38;;;;;;;;;4.00;4.00;;;;;31.16;19.28;98888.09;6044777;28;96545;-72
2022/05/16 15:18:42;;;;;;;;;4.00;3.50;;;;;31.14;19.48;98896.81;6006992;28;98392;-73
2022/05/16 15:21:47;;;;;;;;;3.00;3.00;;;;;31.04;18.78;98888.97;6044773;28;96614;-73
2022/05/16 15:24:55;;;;;;;;;3.00;3.00;;;;;30.70;18.92;98861.75;6027132;28;98384;-73
2022/05/16 15:27:59;;;;;;;;;5.00;4.20;;;;;30.76;19.37;98875.06;6027989;28;96885;-72
2022/05/16 15:31:04;;;;;;;;;4.00;4.00;;;;;30.70;19.67;98884.81;6046186;28;97483;-71
2022/05/16 15:34:08;;;;;;;;;6.00;5.40;;;;;30.50;18.62;98869.94;6045213;28;97616;-72
2022/05/16 15:37:14;;;;;;;;;5.40;4.00;;;;;30.38;19.31;98875.53;6027639;28;97444;-72
2022/05/16 15:40:19;;;;;;;;;4.00;4.00;;;;;30.32;19.02;98865.81;6027874;28;100228;-72